sensor_id;sensor_type;location;lat;lon;timestamp;temperature;humidity
75113;DHT22;63692;47.338;8.520;2022-12-07T05:24:22;3.00;90.10
75113;DHT22;63692;47.338;8.520;2022-12-07T05:26:47;3.00;90.20
75113;DHT22;63692;47.338;8.520;2022-12-07T05:29:14;3.00;90.10
75113;DHT22;63692;47.338;8.520;2022-12-07T05:31:41;3.00;89.80
75113;DHT22;63692;47.338;8.520;2022-12-07T05:51:38;3.10;90.30
75113;DHT22;63692;47.338;8.520;2022-12-07T05:54:04;3.10;90.30
75113;DHT22;63692;47.338;8.520;2022-12-07T05:56:32;3.20;90.80
75113;DHT22;63692;47.338;8.520;2022-12-07T06:11:45;3.30;90.50
75113;DHT22;63692;47.338;8.520;2022-12-07T06:14:29;3.30;90.60
75113;DHT22;63692;47.338;8.520;2022-12-07T06:16:54;3.40;90.50
75113;DHT22;63692;47.338;8.520;2022-12-07T06:19:20;3.40;90.60
75113;DHT22;63692;47.338;8.520;2022-12-07T06:21:46;3.40;90.30
75113;DHT22;63692;47.338;8.520;2022-12-07T06:24:13;3.40;90.40
75113;DHT22;63692;47.338;8.520;2022-12-07T06:26:39;3.40;90.50
75113;DHT22;63692;47.338;8.520;2022-12-07T06:29:05;3.40;90.00
75113;DHT22;63692;47.338;8.520;2022-12-07T06:31:31;3.40;90.20
75113;DHT22;63692;47.338;8.520;2022-12-07T06:34:02;3.40;90.50
75113;DHT22;63692;47.338;8.520;2022-12-07T06:36:28;3.40;90.20
75113;DHT22;63692;47.338;8.520;2022-12-07T06:38:54;3.40;90.00
75113;DHT22;63692;47.338;8.520;2022-12-07T06:41:20;3.40;89.80
75113;DHT22;63692;47.338;8.520;2022-12-07T06:43:46;3.40;89.70
75113;DHT22;63692;47.338;8.520;2022-12-07T06:46:12;3.30;89.70
75113;DHT22;63692;47.338;8.520;2022-12-07T06:51:05;3.30;89.90
75113;DHT22;63692;47.338;8.520;2022-12-07T06:53:31;3.30;89.80
75113;DHT22;63692;47.338;8.520;2022-12-07T06:55:56;3.30;89.80
75113;DHT22;63692;47.338;8.520;2022-12-07T06:58:22;3.30;90.00
75113;DHT22;63692;47.338;8.520;2022-12-07T07:00:49;3.30;89.80
75113;DHT22;63692;47.338;8.520;2022-12-07T07:03:16;3.30;90.10
75113;DHT22;63692;47.338;8.520;2022-12-07T07:05:42;3.30;90.30
75113;DHT22;63692;47.338;8.520;2022-12-07T07:08:08;3.30;90.20
75113;DHT22;63692;47.338;8.520;2022-12-07T07:10:34;3.30;90.30
75113;DHT22;63692;47.338;8.520;2022-12-07T07:13:00;3.30;90.70
75113;DHT22;63692;47.338;8.520;2022-12-07T07:15:25;3.30;90.50
75113;DHT22;63692;47.338;8.520;2022-12-07T07:17:51;3.30;90.50
75113;DHT22;63692;47.338;8.520;2022-12-07T07:20:17;3.30;90.70
75113;DHT22;63692;47.338;8.520;2022-12-07T07:22:42;3.30;90.80
75113;DHT22;63692;47.338;8.520;2022-12-07T07:25:08;3.30;90.60
75113;DHT22;63692;47.338;8.520;2022-12-07T07:27:34;3.30;90.90
75113;DHT22;63692;47.338;8.520;2022-12-07T07:29:59;3.30;91.20
75113;DHT22;63692;47.338;8.520;2022-12-07T07:32:25;3.30;90.90
75113;DHT22;63692;47.338;8.520;2022-12-07T07:34:51;3.30;90.90
75113;DHT22;63692;47.338;8.520;2022-12-07T07:37:17;3.30;90.90
75113;DHT22;63692;47.338;8.520;2022-12-07T07:39:42;3.30;91.10
75113;DHT22;63692;47.338;8.520;2022-12-07T07:42:08;3.30;91.50
75113;DHT22;63692;47.338;8.520;2022-12-07T07:44:34;3.30;91.30
75113;DHT22;63692;47.338;8.520;2022-12-07T07:47:00;3.40;91.40
75113;DHT22;63692;47.338;8.520;2022-12-07T07:49:26;3.40;91.40
75113;DHT22;63692;47.338;8.520;2022-12-07T07:51:52;3.50;91.30
75113;DHT22;63692;47.338;8.520;2022-12-07T07:54:18;3.50;91.30
75113;DHT22;63692;47.338;8.520;2022-12-07T07:56:43;3.50;91.30
75113;DHT22;63692;47.338;8.520;2022-12-07T07:59:09;3.40;91.50
75113;DHT22;63692;47.338;8.520;2022-12-07T08:01:36;3.30;91.90
75113;DHT22;63692;47.338;8.520;2022-12-07T08:04:01;3.40;92.10
75113;DHT22;63692;47.338;8.520;2022-12-07T08:06:27;3.40;92.10
75113;DHT22;63692;47.338;8.520;2022-12-07T08:08:53;3.40;92.30
75113;DHT22;63692;47.338;8.520;2022-12-07T08:11:18;3.40;92.70
75113;DHT22;63692;47.338;8.520;2022-12-07T08:13:47;3.40;92.80
75113;DHT22;63692;47.338;8.520;2022-12-07T08:16:13;3.40;92.70
75113;DHT22;63692;47.338;8.520;2022-12-07T08:18:40;3.50;92.90
75113;DHT22;63692;47.338;8.520;2022-12-07T08:21:09;3.50;92.80
75113;DHT22;63692;47.338;8.520;2022-12-07T08:23:35;3.50;92.90
75113;DHT22;63692;47.338;8.520;2022-12-07T08:26:02;3.50;93.00
75113;DHT22;63692;47.338;8.520;2022-12-07T08:28:29;3.50;92.80
75113;DHT22;63692;47.338;8.520;2022-12-07T08:31:11;3.60;92.90
75113;DHT22;63692;47.338;8.520;2022-12-07T08:33:38;3.60;92.90
75113;DHT22;63692;47.338;8.520;2022-12-07T08:36:09;3.60;93.00
75113;DHT22;63692;47.338;8.520;2022-12-07T08:38:36;3.50;93.10
75113;DHT22;63692;47.338;8.520;2022-12-07T08:41:02;3.60;93.20
75113;DHT22;63692;47.338;8.520;2022-12-07T08:43:28;3.60;93.10
75113;DHT22;63692;47.338;8.520;2022-12-07T08:46:31;3.60;93.20
75113;DHT22;63692;47.338;8.520;2022-12-07T08:49:15;3.60;93.00
75113;DHT22;63692;47.338;8.520;2022-12-07T08:51:42;3.50;93.10
75113;DHT22;63692;47.338;8.520;2022-12-07T08:54:10;3.50;93.30
75113;DHT22;63692;47.338;8.520;2022-12-07T08:56:36;3.50;93.40
75113;DHT22;63692;47.338;8.520;2022-12-07T08:59:04;3.40;93.70
75113;DHT22;63692;47.338;8.520;2022-12-07T09:01:30;3.30;93.80
75113;DHT22;63692;47.338;8.520;2022-12-07T09:03:55;3.30;93.80
75113;DHT22;63692;47.338;8.520;2022-12-07T09:06:21;3.30;93.90
75113;DHT22;63692;47.338;8.520;2022-12-07T09:08:50;3.30;94.20
75113;DHT22;63692;47.338;8.520;2022-12-07T09:11:16;3.20;94.30
75113;DHT22;63692;47.338;8.520;2022-12-07T09:13:42;3.30;94.40
75113;DHT22;63692;47.338;8.520;2022-12-07T09:16:07;3.30;94.40
75113;DHT22;63692;47.338;8.520;2022-12-07T09:18:33;3.30;94.40
75113;DHT22;63692;47.338;8.520;2022-12-07T09:20:59;3.30;94.40
75113;DHT22;63692;47.338;8.520;2022-12-07T09:23:25;3.30;94.40
75113;DHT22;63692;47.338;8.520;2022-12-07T09:25:50;3.30;94.50
75113;DHT22;63692;47.338;8.520;2022-12-07T09:28:16;3.30;94.50
75113;DHT22;63692;47.338;8.520;2022-12-07T09:30:48;3.40;94.50
75113;DHT22;63692;47.338;8.520;2022-12-07T09:33:14;3.50;94.40
75113;DHT22;63692;47.338;8.520;2022-12-07T09:35:48;3.50;94.00
75113;DHT22;63692;47.338;8.520;2022-12-07T09:38:14;3.60;93.70
75113;DHT22;63692;47.338;8.520;2022-12-07T09:40:40;3.60;93.70
75113;DHT22;63692;47.338;8.520;2022-12-07T09:43:16;3.70;93.70
75113;DHT22;63692;47.338;8.520;2022-12-07T09:45:44;3.70;93.60
75113;DHT22;63692;47.338;8.520;2022-12-07T09:48:35;3.70;93.50
75113;DHT22;63692;47.338;8.520;2022-12-07T09:51:03;3.70;93.70
75113;DHT22;63692;47.338;8.520;2022-12-07T09:53:38;3.70;94.00
75113;DHT22;63692;47.338;8.520;2022-12-07T09:56:05;3.80;93.80
75113;DHT22;63692;47.338;8.520;2022-12-07T09:58:32;3.80;93.60
75113;DHT22;63692;47.338;8.520;2022-12-07T10:01:10;3.90;93.30
75113;DHT22;63692;47.338;8.520;2022-12-07T10:03:39;3.90;93.20
75113;DHT22;63692;47.338;8.520;2022-12-07T10:06:06;3.90;93.20
75113;DHT22;63692;47.338;8.520;2022-12-07T10:08:32;3.90;93.40
75113;DHT22;63692;47.338;8.520;2022-12-07T10:10:59;3.80;93.00
75113;DHT22;63692;47.338;8.520;2022-12-07T10:13:43;3.70;92.10
75113;DHT22;63692;47.338;8.520;2022-12-07T10:16:38;3.70;92.50
75113;DHT22;63692;47.338;8.520;2022-12-07T10:24:30;3.90;92.60
75113;DHT22;63692;47.338;8.520;2022-12-07T10:26:56;4.00;92.80
75113;DHT22;63692;47.338;8.520;2022-12-07T10:32:01;4.10;92.40
75113;DHT22;63692;47.338;8.520;2022-12-07T10:34:30;4.10;92.20
75113;DHT22;63692;47.338;8.520;2022-12-07T10:39:43;4.20;91.90
75113;DHT22;63692;47.338;8.520;2022-12-07T10:42:19;4.20;91.80
75113;DHT22;63692;47.338;8.520;2022-12-07T10:44:47;4.30;91.60
75113;DHT22;63692;47.338;8.520;2022-12-07T10:47:17;4.30;91.40
75113;DHT22;63692;47.338;8.520;2022-12-07T10:52:39;4.40;91.30
75113;DHT22;63692;47.338;8.520;2022-12-07T10:58:06;4.40;91.10
75113;DHT22;63692;47.338;8.520;2022-12-07T11:00:43;4.40;90.80
75113;DHT22;63692;47.338;8.520;2022-12-07T11:03:27;4.50;90.90
75113;DHT22;63692;47.338;8.520;2022-12-07T11:14:25;4.30;89.70
75113;DHT22;63692;47.338;8.520;2022-12-07T11:17:07;4.30;90.10
75113;DHT22;63692;47.338;8.520;2022-12-07T11:20:02;4.40;90.00
75113;DHT22;63692;47.338;8.520;2022-12-07T11:25:25;4.40;89.90
75113;DHT22;63692;47.338;8.520;2022-12-07T11:31:04;4.50;88.80
75113;DHT22;63692;47.338;8.520;2022-12-07T11:33:44;4.50;87.80
75113;DHT22;63692;47.338;8.520;2022-12-07T11:38:47;4.40;89.40
75113;DHT22;63692;47.338;8.520;2022-12-07T11:41:14;4.40;89.20
75113;DHT22;63692;47.338;8.520;2022-12-07T11:51:51;4.30;90.10
75113;DHT22;63692;47.338;8.520;2022-12-07T11:54:23;4.30;89.80
75113;DHT22;63692;47.338;8.520;2022-12-07T11:56:54;4.30;88.90
75113;DHT22;63692;47.338;8.520;2022-12-07T11:59:31;4.30;89.10
75113;DHT22;63692;47.338;8.520;2022-12-07T12:05:18;4.10;89.30
75113;DHT22;63692;47.338;8.520;2022-12-07T12:07:48;4.10;90.20
75113;DHT22;63692;47.338;8.520;2022-12-07T12:10:22;4.10;90.00
75113;DHT22;63692;47.338;8.520;2022-12-07T12:21:20;4.20;90.30
75113;DHT22;63692;47.338;8.520;2022-12-07T12:24:01;4.10;89.90
75113;DHT22;63692;47.338;8.520;2022-12-07T12:26:31;4.10;90.00
75113;DHT22;63692;47.338;8.520;2022-12-07T12:29:04;4.20;89.40
75113;DHT22;63692;47.338;8.520;2022-12-07T12:31:39;4.10;89.40
75113;DHT22;63692;47.338;8.520;2022-12-07T12:36:59;4.10;90.00
75113;DHT22;63692;47.338;8.520;2022-12-07T12:39:25;4.00;90.00
75113;DHT22;63692;47.338;8.520;2022-12-07T12:41:53;4.00;90.00
75113;DHT22;63692;47.338;8.520;2022-12-07T12:46:52;4.00;89.90
75113;DHT22;63692;47.338;8.520;2022-12-07T12:59:57;4.00;90.00
75113;DHT22;63692;47.338;8.520;2022-12-07T13:18:04;4.40;89.30
75113;DHT22;63692;47.338;8.520;2022-12-07T13:22:59;4.50;87.60
75113;DHT22;63692;47.338;8.520;2022-12-07T13:25:41;4.60;87.70
75113;DHT22;63692;47.338;8.520;2022-12-07T13:28:14;4.60;87.50
75113;DHT22;63692;47.338;8.520;2022-12-07T13:30:47;4.60;87.80
75113;DHT22;63692;47.338;8.520;2022-12-07T13:33:17;4.60;88.00
75113;DHT22;63692;47.338;8.520;2022-12-07T13:35:44;4.70;88.60
75113;DHT22;63692;47.338;8.520;2022-12-07T13:38:35;4.70;88.10
75113;DHT22;63692;47.338;8.520;2022-12-07T13:41:04;4.70;86.20
75113;DHT22;63692;47.338;8.520;2022-12-07T13:43:50;4.70;86.60
75113;DHT22;63692;47.338;8.520;2022-12-07T13:46:19;4.60;87.10
75113;DHT22;63692;47.338;8.520;2022-12-07T13:48:48;4.70;88.00
75113;DHT22;63692;47.338;8.520;2022-12-07T13:51:28;4.70;86.60
75113;DHT22;63692;47.338;8.520;2022-12-07T13:54:00;4.70;86.40
75113;DHT22;63692;47.338;8.520;2022-12-07T13:56:31;4.70;87.20
75113;DHT22;63692;47.338;8.520;2022-12-07T13:58:58;4.70;86.80
75113;DHT22;63692;47.338;8.520;2022-12-07T14:01:25;4.70;86.40
75113;DHT22;63692;47.338;8.520;2022-12-07T14:03:50;4.70;86.60
75113;DHT22;63692;47.338;8.520;2022-12-07T14:06:28;4.80;85.40
75113;DHT22;63692;47.338;8.520;2022-12-07T14:09:21;4.80;84.30
75113;DHT22;63692;47.338;8.520;2022-12-07T14:11:49;4.80;84.70
75113;DHT22;63692;47.338;8.520;2022-12-07T14:14:19;4.80;83.80
75113;DHT22;63692;47.338;8.520;2022-12-07T14:17:10;4.80;84.60
75113;DHT22;63692;47.338;8.520;2022-12-07T14:22:27;4.70;84.80
75113;DHT22;63692;47.338;8.520;2022-12-07T14:27:31;4.60;85.00
75113;DHT22;63692;47.338;8.520;2022-12-07T14:29:59;4.60;84.50
75113;DHT22;63692;47.338;8.520;2022-12-07T14:32:27;4.60;83.80
75113;DHT22;63692;47.338;8.520;2022-12-07T14:35:03;4.60;84.30
75113;DHT22;63692;47.338;8.520;2022-12-07T14:37:35;4.50;83.80
75113;DHT22;63692;47.338;8.520;2022-12-07T14:40:01;4.50;84.40
75113;DHT22;63692;47.338;8.520;2022-12-07T14:42:28;4.50;85.70
75113;DHT22;63692;47.338;8.520;2022-12-07T14:44:56;4.50;86.30
75113;DHT22;63692;47.338;8.520;2022-12-07T14:47:23;4.50;85.20
75113;DHT22;63692;47.338;8.520;2022-12-07T14:49:49;4.40;85.20
75113;DHT22;63692;47.338;8.520;2022-12-07T14:52:20;4.40;85.00
75113;DHT22;63692;47.338;8.520;2022-12-07T14:54:46;4.40;85.30
75113;DHT22;63692;47.338;8.520;2022-12-07T14:57:12;4.40;85.30
75113;DHT22;63692;47.338;8.520;2022-12-07T14:59:38;4.40;85.60
75113;DHT22;63692;47.338;8.520;2022-12-07T15:02:04;4.40;85.40
75113;DHT22;63692;47.338;8.520;2022-12-07T15:04:29;4.40;85.40
75113;DHT22;63692;47.338;8.520;2022-12-07T15:06:57;4.40;86.10
75113;DHT22;63692;47.338;8.520;2022-12-07T15:09:23;4.40;86.40
75113;DHT22;63692;47.338;8.520;2022-12-07T15:11:49;4.40;87.40
75113;DHT22;63692;47.338;8.520;2022-12-07T15:14:14;4.40;87.60
75113;DHT22;63692;47.338;8.520;2022-12-07T15:16:41;4.40;87.90
75113;DHT22;63692;47.338;8.520;2022-12-07T15:19:16;4.40;87.30
75113;DHT22;63692;47.338;8.520;2022-12-07T15:21:42;4.40;87.90
75113;DHT22;63692;47.338;8.520;2022-12-07T15:24:10;4.40;86.90
75113;DHT22;63692;47.338;8.520;2022-12-07T15:26:36;4.40;86.70
75113;DHT22;63692;47.338;8.520;2022-12-07T15:29:02;4.30;86.30
75113;DHT22;63692;47.338;8.520;2022-12-07T15:31:28;4.30;86.70
75113;DHT22;63692;47.338;8.520;2022-12-07T15:33:54;4.30;87.90
75113;DHT22;63692;47.338;8.520;2022-12-07T15:36:22;4.30;87.90
75113;DHT22;63692;47.338;8.520;2022-12-07T15:38:48;4.30;88.80
75113;DHT22;63692;47.338;8.520;2022-12-07T15:41:14;4.30;88.60
75113;DHT22;63692;47.338;8.520;2022-12-07T15:43:40;4.30;88.00
75113;DHT22;63692;47.338;8.520;2022-12-07T15:46:30;4.30;88.10
75113;DHT22;63692;47.338;8.520;2022-12-07T15:48:56;4.30;87.50
75113;DHT22;63692;47.338;8.520;2022-12-07T15:51:21;4.30;87.90
75113;DHT22;63692;47.338;8.520;2022-12-07T15:53:47;4.20;87.90
75113;DHT22;63692;47.338;8.520;2022-12-07T15:56:12;4.20;88.40
75113;DHT22;63692;47.338;8.520;2022-12-07T15:58:38;4.20;88.90
75113;DHT22;63692;47.338;8.520;2022-12-07T16:01:13;4.20;88.90
75113;DHT22;63692;47.338;8.520;2022-12-07T16:03:40;4.20;88.80
75113;DHT22;63692;47.338;8.520;2022-12-07T16:06:06;4.20;89.20
75113;DHT22;63692;47.338;8.520;2022-12-07T16:08:32;4.20;89.20
75113;DHT22;63692;47.338;8.520;2022-12-07T16:10:57;4.20;89.00
75113;DHT22;63692;47.338;8.520;2022-12-07T16:13:23;4.20;89.40
75113;DHT22;63692;47.338;8.520;2022-12-07T16:15:48;4.10;89.90
75113;DHT22;63692;47.338;8.520;2022-12-07T16:18:14;4.10;90.20
75113;DHT22;63692;47.338;8.520;2022-12-07T16:20:40;4.00;90.20
75113;DHT22;63692;47.338;8.520;2022-12-07T16:23:05;4.00;90.20
75113;DHT22;63692;47.338;8.520;2022-12-07T16:25:31;4.00;90.20
75113;DHT22;63692;47.338;8.520;2022-12-07T16:27:56;4.00;90.10
75113;DHT22;63692;47.338;8.520;2022-12-07T16:30:22;4.00;90.40
75113;DHT22;63692;47.338;8.520;2022-12-07T16:32:47;4.00;90.40
75113;DHT22;63692;47.338;8.520;2022-12-07T16:35:13;4.00;90.00
75113;DHT22;63692;47.338;8.520;2022-12-07T16:37:41;4.00;89.90
75113;DHT22;63692;47.338;8.520;2022-12-07T16:40:07;4.10;90.00
75113;DHT22;63692;47.338;8.520;2022-12-07T16:42:34;4.10;90.00
75113;DHT22;63692;47.338;8.520;2022-12-07T16:45:01;4.10;89.60
75113;DHT22;63692;47.338;8.520;2022-12-07T16:47:26;4.00;89.90
75113;DHT22;63692;47.338;8.520;2022-12-07T16:49:52;4.10;90.30
75113;DHT22;63692;47.338;8.520;2022-12-07T16:52:19;4.10;90.30
75113;DHT22;63692;47.338;8.520;2022-12-07T16:54:45;4.10;89.50
75113;DHT22;63692;47.338;8.520;2022-12-07T16:57:11;4.00;89.90
75113;DHT22;63692;47.338;8.520;2022-12-07T16:59:36;4.00;89.90
75113;DHT22;63692;47.338;8.520;2022-12-07T17:02:02;4.00;89.80
75113;DHT22;63692;47.338;8.520;2022-12-07T17:04:29;3.90;90.40
75113;DHT22;63692;47.338;8.520;2022-12-07T17:06:57;3.90;90.60
75113;DHT22;63692;47.338;8.520;2022-12-07T17:09:24;3.80;90.70
75113;DHT22;63692;47.338;8.520;2022-12-07T17:11:50;3.70;90.70
75113;DHT22;63692;47.338;8.520;2022-12-07T17:14:16;3.70;90.70
75113;DHT22;63692;47.338;8.520;2022-12-07T17:17:00;3.70;90.90
75113;DHT22;63692;47.338;8.520;2022-12-07T17:19:25;3.70;90.80
75113;DHT22;63692;47.338;8.520;2022-12-07T17:21:51;3.70;90.90
75113;DHT22;63692;47.338;8.520;2022-12-07T17:24:17;3.70;90.90
75113;DHT22;63692;47.338;8.520;2022-12-07T17:26:44;3.60;90.80
75113;DHT22;63692;47.338;8.520;2022-12-07T17:29:13;3.70;91.00
75113;DHT22;63692;47.338;8.520;2022-12-07T17:31:39;3.70;90.90
75113;DHT22;63692;47.338;8.520;2022-12-07T17:34:10;3.60;91.00
75113;DHT22;63692;47.338;8.520;2022-12-07T17:39:09;3.60;91.30
75113;DHT22;63692;47.338;8.520;2022-12-07T17:41:36;3.50;91.50
75113;DHT22;63692;47.338;8.520;2022-12-07T17:44:20;3.40;91.60
75113;DHT22;63692;47.338;8.520;2022-12-07T17:46:48;3.40;91.80
75113;DHT22;63692;47.338;8.520;2022-12-07T17:49:15;3.40;91.90
75113;DHT22;63692;47.338;8.520;2022-12-07T17:51:40;3.30;91.70
75113;DHT22;63692;47.338;8.520;2022-12-07T17:54:25;3.30;91.70
75113;DHT22;63692;47.338;8.520;2022-12-07T17:56:51;3.30;91.80
75113;DHT22;63692;47.338;8.520;2022-12-07T17:59:16;3.30;91.70
75113;DHT22;63692;47.338;8.520;2022-12-07T18:01:43;3.30;91.80
75113;DHT22;63692;47.338;8.520;2022-12-07T18:04:09;3.30;91.80
75113;DHT22;63692;47.338;8.520;2022-12-07T18:09:03;3.30;91.80
75113;DHT22;63692;47.338;8.520;2022-12-07T18:11:30;3.30;91.80
75113;DHT22;63692;47.338;8.520;2022-12-07T18:13:56;3.20;92.00
75113;DHT22;63692;47.338;8.520;2022-12-07T18:16:25;3.10;92.00
75113;DHT22;63692;47.338;8.520;2022-12-07T18:18:52;3.10;91.80
75113;DHT22;63692;47.338;8.520;2022-12-07T18:21:25;3.10;91.80
75113;DHT22;63692;47.338;8.520;2022-12-07T18:23:54;3.10;91.80
75113;DHT22;63692;47.338;8.520;2022-12-07T18:26:21;3.10;91.80
75113;DHT22;63692;47.338;8.520;2022-12-07T18:38:43;3.00;92.30
75113;DHT22;63692;47.338;8.520;2022-12-07T18:46:12;2.90;91.90
75113;DHT22;63692;47.338;8.520;2022-12-07T18:48:38;2.80;92.00
75113;DHT22;63692;47.338;8.520;2022-12-07T18:51:05;2.80;91.60
75113;DHT22;63692;47.338;8.520;2022-12-07T18:53:32;2.80;91.80
75113;DHT22;63692;47.338;8.520;2022-12-07T18:56:09;2.80;91.70
75113;DHT22;63692;47.338;8.520;2022-12-07T18:58:35;2.90;91.60
75113;DHT22;63692;47.338;8.520;2022-12-07T19:01:02;2.90;91.50
75113;DHT22;63692;47.338;8.520;2022-12-07T19:03:28;3.00;91.20
75113;DHT22;63692;47.338;8.520;2022-12-07T19:05:55;2.90;91.20
75113;DHT22;63692;47.338;8.520;2022-12-07T19:08:23;2.80;91.30
75113;DHT22;63692;47.338;8.520;2022-12-07T19:10:52;2.80;91.40
75113;DHT22;63692;47.338;8.520;2022-12-07T19:13:17;2.80;91.60
75113;DHT22;63692;47.338;8.520;2022-12-07T19:15:43;2.90;91.80
75113;DHT22;63692;47.338;8.520;2022-12-07T19:18:09;2.90;91.40
75113;DHT22;63692;47.338;8.520;2022-12-07T19:20:34;2.90;91.40
75113;DHT22;63692;47.338;8.520;2022-12-07T19:23:00;2.80;91.60
75113;DHT22;63692;47.338;8.520;2022-12-07T19:25:26;2.70;91.80
75113;DHT22;63692;47.338;8.520;2022-12-07T19:27:51;2.60;92.00
75113;DHT22;63692;47.338;8.520;2022-12-07T19:30:17;2.70;92.20
75113;DHT22;63692;47.338;8.520;2022-12-07T19:32:43;2.70;92.20
75113;DHT22;63692;47.338;8.520;2022-12-07T19:35:08;2.80;92.30
75113;DHT22;63692;47.338;8.520;2022-12-07T19:37:35;2.80;92.10
75113;DHT22;63692;47.338;8.520;2022-12-07T19:42:28;2.90;91.90
75113;DHT22;63692;47.338;8.520;2022-12-07T19:44:59;2.90;91.30
75113;DHT22;63692;47.338;8.520;2022-12-07T19:47:25;2.80;91.40
75113;DHT22;63692;47.338;8.520;2022-12-07T19:57:14;3.00;91.10
75113;DHT22;63692;47.338;8.520;2022-12-07T19:59:41;3.00;91.00
75113;DHT22;63692;47.338;8.520;2022-12-07T20:02:11;3.00;91.00
75113;DHT22;63692;47.338;8.520;2022-12-07T20:04:37;3.00;91.00
75113;DHT22;63692;47.338;8.520;2022-12-07T20:07:03;3.00;91.20
75113;DHT22;63692;47.338;8.520;2022-12-07T20:09:28;3.00;91.10
75113;DHT22;63692;47.338;8.520;2022-12-07T20:11:54;3.00;91.00
75113;DHT22;63692;47.338;8.520;2022-12-07T20:14:38;2.90;91.30
75113;DHT22;63692;47.338;8.520;2022-12-07T20:17:04;2.80;91.40
75113;DHT22;63692;47.338;8.520;2022-12-07T20:19:30;2.80;91.50
75113;DHT22;63692;47.338;8.520;2022-12-07T20:21:55;2.80;91.60
75113;DHT22;63692;47.338;8.520;2022-12-07T20:24:24;2.80;91.50
75113;DHT22;63692;47.338;8.520;2022-12-07T20:26:50;2.90;91.60
75113;DHT22;63692;47.338;8.520;2022-12-07T20:29:20;2.80;91.50
75113;DHT22;63692;47.338;8.520;2022-12-07T20:34:14;2.70;91.60
75113;DHT22;63692;47.338;8.520;2022-12-07T20:36:40;2.60;91.60
75113;DHT22;63692;47.338;8.520;2022-12-07T20:39:06;2.70;91.70
75113;DHT22;63692;47.338;8.520;2022-12-07T20:41:32;2.70;91.70
